createdAt,value
2022-07-30T00:01:35.726Z,99.90
2022-07-30T00:04:03.820Z,99.90
2022-07-30T00:06:31.068Z,99.90
2022-07-30T00:08:58.898Z,99.90
2022-07-30T00:11:27.971Z,99.90
2022-07-30T00:13:56.148Z,99.90
2022-07-30T00:16:23.761Z,99.90
2022-07-30T00:18:52.452Z,99.90
2022-07-30T00:21:35.539Z,99.90
2022-07-30T00:24:04.849Z,99.90
2022-07-30T00:26:32.357Z,99.90
2022-07-30T00:28:59.524Z,99.90
2022-07-30T00:31:26.975Z,99.90
2022-07-30T00:33:54.826Z,99.90
2022-07-30T00:36:22.611Z,99.90
2022-07-30T00:38:50.276Z,99.90
2022-07-30T00:41:17.621Z,99.90
2022-07-30T00:43:45.401Z,99.90
2022-07-30T00:46:14.880Z,99.90
2022-07-30T00:48:42.777Z,99.90
2022-07-30T00:51:10.339Z,99.90
2022-07-30T00:53:38.082Z,99.90
2022-07-30T00:56:05.653Z,99.90
2022-07-30T00:58:32.761Z,99.90
2022-07-30T01:01:00.199Z,99.90
2022-07-30T01:03:27.339Z,99.90
2022-07-30T01:05:54.729Z,99.90
2022-07-30T01:08:22.630Z,99.90
2022-07-30T01:10:49.753Z,1.00
2022-07-30T01:13:17.481Z,1.00
2022-07-30T01:15:44.863Z,1.00
2022-07-30T01:18:13.990Z,99.90
2022-07-30T01:21:04.696Z,1.00
2022-07-30T01:23:38.187Z,99.90
2022-07-30T01:26:11.380Z,1.00
2022-07-30T01:28:45.392Z,80.40
2022-07-30T01:31:14.504Z,97.10
2022-07-30T01:33:47.458Z,18.90
2022-07-30T01:36:17.087Z,57.00
2022-07-30T01:38:46.363Z,30.20
2022-07-30T01:41:15.312Z,45.90
2022-07-30T01:43:45.358Z,68.80
2022-07-30T01:46:16.601Z,70.60
2022-07-30T01:48:46.873Z,99.90
2022-07-30T01:51:16.946Z,99.90
2022-07-30T01:53:50.111Z,99.90
2022-07-30T01:56:24.692Z,99.90
2022-07-30T01:58:54.095Z,99.90
2022-07-30T02:01:25.057Z,99.90
2022-07-30T02:04:00.207Z,99.90
2022-07-30T02:06:37.314Z,99.90
2022-07-30T02:09:11.092Z,99.90
2022-07-30T02:12:05.860Z,99.90
2022-07-30T02:14:52.434Z,99.90
2022-07-30T02:17:30.249Z,99.90
2022-07-30T02:20:09.232Z,99.90
2022-07-30T02:22:41.051Z,99.90
2022-07-30T02:25:10.620Z,99.90
2022-07-30T02:27:41.976Z,99.90
2022-07-30T02:30:10.756Z,99.90
2022-07-30T02:32:41.014Z,99.90
2022-07-30T02:35:15.882Z,99.90
2022-07-30T02:37:45.644Z,99.90
2022-07-30T02:40:17.162Z,1.00
2022-07-30T02:42:49.042Z,99.90
2022-07-30T02:45:22.555Z,23.40
2022-07-30T02:47:56.102Z,7.00
2022-07-30T02:50:25.043Z,1.00
2022-07-30T02:52:55.094Z,99.90
2022-07-30T02:55:25.023Z,99.90
2022-07-30T02:57:56.859Z,1.00
2022-07-30T03:00:27.464Z,99.90
2022-07-30T03:02:57.175Z,99.90
2022-07-30T03:05:26.061Z,99.90
2022-07-30T03:07:59.843Z,99.90
2022-07-30T03:10:28.861Z,99.90
2022-07-30T03:12:58.410Z,99.90
2022-07-30T03:15:27.137Z,99.90
2022-07-30T03:17:56.264Z,99.90
2022-07-30T03:20:29.633Z,99.90
2022-07-30T03:22:59.640Z,99.90
2022-07-30T03:25:30.739Z,51.30
2022-07-30T03:28:01.580Z,70.70
2022-07-30T03:30:30.153Z,26.20
2022-07-30T03:32:58.494Z,1.00
2022-07-30T03:35:27.178Z,1.00
2022-07-30T03:37:59.962Z,99.90
2022-07-30T03:40:28.619Z,99.90
2022-07-30T03:42:56.398Z,99.90
2022-07-30T03:45:25.231Z,99.90
2022-07-30T03:47:58.219Z,99.90
2022-07-30T03:50:26.139Z,1.00
2022-07-30T03:52:53.781Z,99.90
2022-07-30T03:55:23.176Z,99.90
2022-07-30T03:57:51.065Z,99.90
2022-07-30T04:00:22.545Z,99.90
2022-07-30T04:02:52.706Z,99.90
2022-07-30T04:05:41.379Z,99.90
2022-07-30T04:08:13.491Z,99.90
2022-07-30T04:10:41.756Z,99.90
2022-07-30T04:13:31.346Z,99.90
2022-07-30T04:16:40.510Z,99.90
2022-07-30T04:18:56.229Z,99.90
2022-07-30T04:21:26.997Z,99.90
2022-07-30T04:24:03.073Z,99.90
2022-07-30T04:26:33.890Z,99.90
2022-07-30T04:29:04.901Z,99.90
2022-07-30T04:31:37.433Z,99.90
2022-07-30T04:34:28.295Z,99.90
2022-07-30T04:36:55.601Z,99.90
2022-07-30T04:39:22.782Z,99.90
2022-07-30T04:41:50.315Z,99.90
2022-07-30T04:44:40.574Z,99.90
2022-07-30T04:47:27.995Z,99.90
2022-07-30T04:50:12.869Z,99.90
2022-07-30T04:52:41.732Z,99.90
2022-07-30T04:55:11.142Z,99.90
2022-07-30T04:57:42.646Z,99.90
2022-07-30T05:00:11.902Z,99.90
2022-07-30T05:02:42.544Z,99.90
2022-07-30T05:05:12.105Z,99.90
2022-07-30T05:07:39.939Z,99.90
2022-07-30T05:10:10.925Z,99.90
2022-07-30T05:12:39.334Z,99.90
2022-07-30T05:15:09.262Z,99.90
2022-07-30T05:17:38.081Z,99.90
2022-07-30T05:20:08.707Z,99.90
2022-07-30T05:22:53.710Z,99.90
2022-07-30T05:25:22.563Z,99.90
2022-07-30T05:27:52.660Z,99.90
2022-07-30T05:30:25.211Z,99.90
2022-07-30T05:32:58.573Z,99.90
2022-07-30T05:35:29.561Z,99.90
2022-07-30T05:37:56.744Z,99.90
2022-07-30T05:40:25.141Z,99.90
2022-07-30T05:43:21.675Z,99.90
2022-07-30T05:45:49.294Z,99.90
2022-07-30T05:48:16.656Z,99.90
2022-07-30T05:50:44.088Z,99.90
2022-07-30T05:53:11.249Z,99.90
2022-07-30T05:56:04.917Z,99.90
2022-07-30T05:58:51.481Z,99.90
2022-07-30T06:01:29.287Z,99.90
2022-07-30T06:04:00.459Z,99.90
2022-07-30T06:06:39.888Z,99.90
2022-07-30T06:09:07.184Z,99.90
2022-07-30T06:11:35.108Z,99.90
2022-07-30T06:14:02.592Z,99.90
2022-07-30T06:16:31.122Z,99.90
2022-07-30T06:18:58.328Z,99.90
2022-07-30T06:22:05.271Z,99.90
2022-07-30T06:24:29.045Z,99.90
2022-07-30T06:27:04.847Z,99.90
2022-07-30T06:29:32.451Z,99.90
2022-07-30T06:31:59.666Z,99.90
2022-07-30T06:34:26.966Z,99.90
2022-07-30T06:36:55.170Z,99.90
2022-07-30T06:39:56.996Z,99.90
2022-07-30T06:42:18.745Z,99.90
2022-07-30T06:45:20.011Z,99.90
2022-07-30T06:48:16.929Z,99.90
2022-07-30T06:50:44.228Z,99.90
2022-07-30T06:53:11.705Z,99.90
2022-07-30T06:56:00.370Z,99.90
2022-07-30T06:58:34.459Z,99.90
2022-07-30T07:01:23.582Z,99.90
2022-07-30T07:03:51.744Z,99.90
2022-07-30T07:06:18.911Z,99.90
2022-07-30T07:08:46.175Z,99.90
2022-07-30T07:11:17.022Z,99.90
2022-07-30T07:13:47.865Z,99.90
2022-07-30T07:16:26.509Z,99.90
2022-07-30T07:18:56.122Z,99.90
2022-07-30T07:21:24.142Z,99.90
2022-07-30T07:23:53.892Z,99.90
2022-07-30T07:26:47.490Z,99.90
2022-07-30T07:29:14.670Z,99.90
2022-07-30T07:32:06.962Z,99.90
2022-07-30T07:34:29.311Z,99.90
2022-07-30T07:36:56.315Z,99.90
2022-07-30T07:39:24.091Z,99.90
2022-07-30T07:41:51.820Z,99.90
2022-07-30T07:44:23.250Z,99.90
2022-07-30T07:46:50.571Z,99.90
2022-07-30T07:49:18.162Z,99.90
2022-07-30T07:51:49.183Z,99.90
2022-07-30T07:54:22.202Z,99.90
2022-07-30T07:56:56.756Z,99.90
2022-07-30T07:59:39.663Z,99.90
2022-07-30T08:02:12.141Z,99.90
2022-07-30T08:04:58.468Z,99.90
2022-07-30T08:07:46.701Z,99.90
2022-07-30T08:10:32.778Z,99.90
2022-07-30T08:13:52.728Z,99.90
2022-07-30T08:16:24.555Z,99.90
2022-07-30T08:19:12.531Z,99.90
2022-07-30T08:21:54.303Z,99.90
2022-07-30T08:24:22.047Z,99.90
2022-07-30T08:26:49.088Z,99.90
2022-07-30T08:29:17.497Z,99.90
2022-07-30T08:31:45.538Z,99.90
2022-07-30T08:34:13.624Z,99.90
2022-07-30T08:36:42.163Z,99.90
2022-07-30T08:39:09.751Z,99.90
2022-07-30T08:41:37.430Z,99.90
2022-07-30T08:44:12.522Z,99.90
2022-07-30T08:46:47.477Z,99.90
2022-07-30T08:49:32.629Z,99.90
2022-07-30T08:52:01.162Z,99.90
2022-07-30T08:54:45.767Z,99.90
2022-07-30T08:57:13.528Z,99.90
2022-07-30T09:00:00.249Z,99.90
2022-07-30T09:02:31.955Z,99.90
2022-07-30T09:05:04.978Z,99.90
2022-07-30T09:07:36.282Z,99.90
2022-07-30T09:10:06.532Z,99.90
2022-07-30T09:12:36.195Z,99.90
2022-07-30T09:15:06.108Z,99.90
2022-07-30T09:17:46.662Z,99.90
2022-07-30T09:20:14.063Z,99.90
2022-07-30T09:22:52.354Z,99.90
2022-07-30T09:25:44.988Z,99.90
2022-07-30T09:28:36.220Z,99.90
2022-07-30T09:31:18.985Z,99.90
2022-07-30T09:34:22.943Z,99.90
2022-07-30T09:37:22.299Z,99.90
2022-07-30T09:40:17.825Z,99.90
2022-07-30T09:43:14.104Z,99.90
2022-07-30T09:45:58.874Z,99.90
2022-07-30T09:48:27.901Z,99.90
2022-07-30T09:53:57.730Z,99.90
2022-07-30T09:56:30.354Z,99.90
2022-07-30T09:58:59.470Z,99.90
2022-07-30T10:01:49.586Z,99.90
2022-07-30T10:04:40.339Z,99.90
2022-07-30T10:07:25.478Z,99.90
2022-07-30T10:09:59.824Z,99.90
2022-07-30T10:12:28.235Z,99.90
2022-07-30T10:15:02.002Z,99.90
2022-07-30T10:17:34.404Z,99.90
2022-07-30T10:20:18.490Z,99.90
2022-07-30T10:22:47.684Z,99.90
2022-07-30T10:25:49.127Z,99.90
2022-07-30T10:28:40.321Z,99.90
2022-07-30T10:31:08.417Z,99.90
2022-07-30T10:33:58.757Z,99.90
2022-07-30T10:36:29.463Z,99.90
2022-07-30T10:38:57.037Z,99.90
2022-07-30T10:41:42.603Z,99.90
2022-07-30T10:44:34.988Z,99.90
2022-07-30T10:47:07.902Z,99.90
2022-07-30T10:49:41.204Z,99.90
2022-07-30T10:52:12.079Z,99.90
2022-07-30T10:54:42.851Z,99.90
2022-07-30T10:57:22.893Z,99.90
2022-07-30T11:00:00.730Z,99.90
2022-07-30T11:02:35.452Z,99.90
2022-07-30T11:05:43.799Z,99.90
2022-07-30T11:08:31.789Z,99.90
2022-07-30T11:11:19.780Z,99.90
2022-07-30T11:13:57.295Z,99.90
2022-07-30T11:16:31.858Z,99.90
2022-07-30T11:19:50.376Z,99.90
2022-07-30T11:22:38.795Z,99.90
2022-07-30T11:25:50.221Z,99.90
2022-07-30T11:28:41.963Z,99.90
2022-07-30T11:31:56.370Z,99.90
2022-07-30T11:34:18.843Z,99.90
2022-07-30T11:37:18.313Z,99.90
2022-07-30T11:39:58.301Z,99.90
2022-07-30T11:42:30.899Z,99.90
2022-07-30T11:45:16.669Z,99.90
2022-07-30T11:47:43.668Z,99.90
2022-07-30T11:50:31.423Z,99.90
2022-07-30T11:53:04.309Z,99.90
2022-07-30T11:55:34.748Z,99.90
2022-07-30T11:58:04.888Z,99.90
2022-07-30T12:00:41.203Z,99.90
2022-07-30T12:03:13.930Z,99.90
2022-07-30T12:05:42.823Z,99.90
2022-07-30T12:08:31.619Z,99.90
2022-07-30T12:11:00.622Z,99.90
2022-07-30T12:13:44.333Z,99.90
2022-07-30T12:16:17.575Z,99.90
2022-07-30T12:18:46.432Z,99.90
2022-07-30T12:21:17.709Z,99.90
2022-07-30T12:23:56.209Z,99.90
2022-07-30T12:26:34.622Z,99.90
2022-07-30T12:29:06.012Z,99.90
2022-07-30T12:31:33.923Z,99.90
2022-07-30T12:34:01.318Z,99.90
2022-07-30T12:36:35.713Z,99.90
2022-07-30T12:39:04.925Z,99.90
2022-07-30T12:41:49.625Z,99.90
2022-07-30T12:44:39.936Z,99.90
2022-07-30T12:47:21.220Z,99.90
2022-07-30T12:49:50.425Z,99.90
2022-07-30T12:52:28.649Z,99.90
2022-07-30T12:55:12.312Z,99.90
2022-07-30T12:58:05.439Z,99.90
2022-07-30T13:00:44.629Z,99.90
2022-07-30T13:03:25.136Z,99.90
2022-07-30T13:05:57.200Z,99.90
2022-07-30T13:08:47.932Z,99.90
2022-07-30T13:11:16.248Z,99.90
2022-07-30T13:13:43.445Z,99.90
2022-07-30T13:16:11.243Z,99.90
2022-07-30T13:18:38.962Z,99.90
2022-07-30T13:21:10.516Z,99.90
2022-07-30T13:23:39.523Z,99.90
2022-07-30T13:26:09.134Z,99.90
2022-07-30T13:28:37.587Z,99.90
2022-07-30T13:31:04.844Z,99.90
2022-07-30T13:33:32.188Z,99.90
2022-07-30T13:35:59.557Z,99.90
2022-07-30T13:38:28.182Z,99.90
2022-07-30T13:41:00.385Z,99.90
2022-07-30T13:43:29.456Z,99.90
2022-07-30T13:46:01.933Z,99.90
2022-07-30T13:48:29.169Z,99.90
2022-07-30T13:50:56.364Z,99.90
2022-07-30T13:53:23.636Z,99.90
2022-07-30T13:55:50.987Z,99.90
2022-07-30T13:58:18.311Z,99.90
2022-07-30T14:00:47.748Z,99.90
2022-07-30T14:03:15.798Z,99.90
2022-07-30T14:05:43.911Z,99.90
2022-07-30T14:08:12.188Z,99.90
2022-07-30T14:10:40.533Z,99.90
2022-07-30T14:13:09.774Z,99.90
2022-07-30T14:15:39.092Z,99.90
2022-07-30T14:18:07.950Z,99.90
2022-07-30T14:20:35.126Z,99.90
2022-07-30T14:23:02.463Z,99.90
2022-07-30T14:25:29.704Z,99.90
2022-07-30T14:27:56.756Z,99.90
2022-07-30T14:30:24.721Z,99.90
2022-07-30T14:32:58.260Z,99.90
2022-07-30T14:35:27.827Z,99.90
2022-07-30T14:37:55.000Z,99.90
2022-07-30T14:40:22.286Z,99.90
2022-07-30T14:42:49.697Z,99.90
2022-07-30T14:45:16.847Z,99.90
2022-07-30T14:47:43.933Z,99.90
2022-07-30T14:50:11.328Z,99.90
2022-07-30T14:52:39.091Z,99.90
2022-07-30T14:55:07.945Z,99.90
2022-07-30T14:57:35.730Z,99.90
2022-07-30T15:00:05.445Z,99.90
2022-07-30T15:02:32.683Z,99.90
2022-07-30T15:04:59.969Z,99.90
2022-07-30T15:07:27.736Z,99.90
2022-07-30T15:09:54.990Z,99.90
2022-07-30T15:12:26.698Z,99.90
2022-07-30T15:14:54.347Z,99.90
2022-07-30T15:17:21.484Z,99.90
2022-07-30T15:19:50.776Z,99.90
2022-07-30T15:22:19.856Z,99.90
2022-07-30T15:24:47.031Z,99.90
2022-07-30T15:27:14.510Z,99.90
2022-07-30T15:29:44.683Z,99.90
2022-07-30T15:32:11.843Z,99.90
2022-07-30T15:34:39.292Z,99.90
2022-07-30T15:37:06.732Z,99.90
2022-07-30T15:39:34.216Z,99.90
2022-07-30T15:42:03.499Z,99.90
2022-07-30T15:44:31.124Z,99.90
2022-07-30T15:46:59.366Z,99.90
2022-07-30T15:49:27.958Z,99.90
2022-07-30T15:51:56.030Z,99.90
2022-07-30T15:54:24.688Z,99.90
2022-07-30T15:56:53.950Z,99.90
2022-07-30T15:59:22.147Z,99.90
2022-07-30T16:01:49.306Z,99.90
2022-07-30T16:04:18.960Z,99.90
2022-07-30T16:06:53.345Z,99.90
2022-07-30T16:09:20.700Z,99.90
2022-07-30T16:11:49.466Z,99.90
2022-07-30T16:14:18.702Z,99.90
2022-07-30T16:16:46.184Z,99.90
2022-07-30T16:19:13.305Z,99.90
2022-07-30T16:21:40.449Z,99.90
2022-07-30T16:24:07.896Z,99.90
2022-07-30T16:26:37.179Z,99.90
2022-07-30T16:29:04.898Z,99.90
2022-07-30T16:31:32.314Z,99.90
2022-07-30T16:33:59.642Z,99.90
2022-07-30T16:36:26.777Z,99.90
2022-07-30T16:38:54.059Z,99.90
2022-07-30T16:41:21.209Z,99.90
2022-07-30T16:43:48.329Z,99.90
2022-07-30T16:46:15.703Z,99.90
2022-07-30T16:48:46.113Z,99.90
2022-07-30T16:51:18.097Z,99.90
2022-07-30T16:53:45.818Z,99.90
2022-07-30T16:56:12.989Z,99.90
2022-07-30T16:58:40.261Z,99.90
2022-07-30T17:01:08.392Z,99.90
2022-07-30T17:03:35.599Z,99.90
2022-07-30T17:06:02.947Z,99.90
2022-07-30T17:08:30.444Z,99.90
2022-07-30T17:10:57.619Z,99.90
2022-07-30T17:13:25.309Z,99.90
2022-07-30T17:15:52.724Z,99.90
2022-07-30T17:18:19.870Z,99.90
2022-07-30T17:20:47.417Z,99.90
2022-07-30T17:23:14.668Z,99.90
2022-07-30T17:25:41.958Z,99.90
2022-07-30T17:28:09.550Z,99.90
2022-07-30T17:30:36.880Z,99.90
2022-07-30T17:33:06.354Z,99.90
2022-07-30T17:35:34.240Z,99.90
2022-07-30T17:38:01.558Z,99.90
2022-07-30T17:40:31.664Z,99.90
2022-07-30T17:43:03.967Z,99.90
2022-07-30T17:45:36.223Z,99.90
2022-07-30T17:48:05.260Z,99.90
2022-07-30T17:50:33.361Z,99.90
2022-07-30T17:53:03.507Z,99.90
2022-07-30T17:55:34.851Z,99.90
2022-07-30T17:58:08.239Z,99.90
2022-07-30T18:00:35.925Z,99.90
2022-07-30T18:03:03.970Z,99.90
2022-07-30T18:05:31.278Z,99.90
2022-07-30T18:07:58.700Z,99.90
2022-07-30T18:10:26.002Z,99.90
2022-07-30T18:12:53.069Z,99.90
2022-07-30T18:15:21.080Z,99.90
2022-07-30T18:17:48.341Z,99.90
2022-07-30T18:20:15.892Z,99.90
2022-07-30T18:22:43.419Z,99.90
2022-07-30T18:25:18.911Z,99.90
2022-07-30T18:27:47.871Z,99.90
2022-07-30T18:30:15.828Z,99.90
2022-07-30T18:32:45.634Z,99.90
2022-07-30T18:35:14.755Z,99.90
2022-07-30T18:37:43.331Z,1.00
2022-07-30T18:40:13.501Z,1.00
2022-07-30T18:42:41.055Z,99.90
2022-07-30T18:45:11.202Z,99.90
2022-07-30T18:47:38.359Z,99.90
2022-07-30T18:50:06.254Z,99.90
2022-07-30T18:52:34.218Z,99.90
2022-07-30T18:55:01.582Z,99.90
2022-07-30T18:57:28.938Z,99.90
2022-07-30T18:59:56.103Z,99.90
2022-07-30T19:02:25.659Z,99.90
2022-07-30T19:04:53.508Z,99.90
2022-07-30T19:07:20.680Z,99.90
2022-07-30T19:09:48.207Z,99.90
2022-07-30T19:12:17.100Z,1.00
2022-07-30T19:14:44.614Z,26.50
2022-07-30T19:17:13.971Z,42.80
2022-07-30T19:19:43.037Z,99.90
2022-07-30T19:22:13.144Z,99.90
2022-07-30T19:24:40.207Z,99.90
2022-07-30T19:27:12.257Z,99.90
2022-07-30T19:29:42.130Z,99.90
2022-07-30T19:32:09.578Z,99.90
2022-07-30T19:34:36.877Z,99.90
2022-07-30T19:37:04.117Z,99.90
2022-07-30T19:39:31.455Z,99.90
2022-07-30T19:42:02.737Z,99.90
2022-07-30T19:44:37.802Z,99.90
2022-07-30T19:47:07.735Z,99.90
2022-07-30T19:49:40.617Z,99.90
2022-07-30T19:52:23.555Z,99.90
2022-07-30T19:54:52.674Z,98.80
2022-07-30T19:57:21.395Z,96.30
2022-07-30T19:59:59.955Z,65.70
2022-07-30T20:02:39.531Z,77.80
2022-07-30T20:05:10.921Z,96.70
2022-07-30T20:07:39.638Z,99.90
2022-07-30T20:10:08.501Z,99.90
2022-07-30T20:12:38.118Z,99.90
2022-07-30T20:15:14.678Z,99.90
2022-07-30T20:17:42.421Z,99.90
2022-07-30T20:20:12.088Z,99.90
2022-07-30T20:22:39.730Z,99.90
2022-07-30T20:25:08.384Z,99.90
2022-07-30T20:27:38.413Z,99.90
2022-07-30T20:30:08.024Z,99.90
2022-07-30T20:32:36.707Z,99.90
2022-07-30T20:35:04.409Z,99.90
2022-07-30T20:37:32.676Z,99.90
2022-07-30T20:40:08.661Z,99.90
2022-07-30T20:42:36.124Z,99.90
2022-07-30T20:45:04.110Z,99.90
2022-07-30T20:50:19.032Z,99.90
2022-07-30T20:52:58.252Z,99.90
2022-07-30T20:55:25.568Z,28.10
2022-07-30T20:58:01.222Z,23.30
2022-07-30T21:00:41.927Z,99.90
2022-07-30T21:03:16.496Z,1.00
2022-07-30T21:05:44.186Z,99.90
2022-07-30T21:08:12.275Z,99.90
2022-07-30T21:10:41.032Z,99.90
2022-07-30T21:13:12.180Z,99.90
2022-07-30T21:15:45.570Z,1.00
2022-07-30T21:18:27.005Z,75.00
2022-07-30T21:20:54.124Z,11.30
2022-07-30T21:23:24.799Z,1.00
2022-07-30T21:26:01.072Z,1.00
2022-07-30T21:28:35.216Z,99.90
2022-07-30T21:31:07.411Z,99.90
2022-07-30T21:33:36.913Z,99.90
2022-07-30T21:36:05.153Z,99.90
2022-07-30T21:38:38.071Z,64.30
2022-07-30T21:41:14.489Z,99.90
2022-07-30T21:43:46.309Z,96.90
2022-07-30T21:46:25.191Z,99.90
2022-07-30T21:48:56.647Z,99.90
2022-07-30T21:51:26.962Z,99.90
2022-07-30T21:53:54.003Z,99.90
2022-07-30T21:56:21.006Z,99.90
2022-07-30T21:58:48.480Z,99.90
2022-07-30T22:01:20.214Z,99.90
2022-07-30T22:04:03.015Z,91.30
2022-07-30T22:06:37.946Z,99.90
2022-07-30T22:09:20.501Z,99.90
2022-07-30T22:11:55.456Z,1.00
2022-07-30T22:14:25.601Z,1.00
2022-07-30T22:16:53.113Z,1.00
2022-07-30T22:19:21.914Z,99.90
2022-07-30T22:21:51.025Z,1.00
2022-07-30T22:24:29.827Z,1.00
2022-07-30T22:27:10.857Z,99.90
2022-07-30T22:29:43.349Z,99.90
2022-07-30T22:32:11.833Z,1.00
2022-07-30T22:34:39.464Z,1.00
2022-07-30T22:37:12.570Z,6.60
2022-07-30T22:39:50.965Z,22.40
2022-07-30T22:42:20.061Z,15.80
2022-07-30T22:44:48.331Z,1.00
2022-07-30T22:47:20.902Z,1.00
2022-07-30T22:50:05.064Z,1.00
2022-07-30T22:52:44.274Z,1.00
2022-07-30T22:55:25.002Z,1.00
2022-07-30T22:57:52.902Z,1.50
2022-07-30T23:00:28.301Z,25.10
2022-07-30T23:02:56.989Z,6.90
2022-07-30T23:05:25.063Z,23.50
2022-07-30T23:07:52.186Z,24.40
2022-07-30T23:10:21.042Z,30.80
2022-07-30T23:12:18.531Z,99.90
2022-07-30T23:12:53.709Z,33.70
2022-07-30T23:15:21.929Z,43.10
2022-07-30T23:17:48.999Z,50.80
2022-07-30T23:20:20.286Z,50.90
2022-07-30T23:22:50.594Z,55.10
2022-07-30T23:25:17.937Z,64.70
2022-07-30T23:27:46.737Z,63.60
2022-07-30T23:30:14.679Z,68.10
2022-07-30T23:32:41.948Z,66.50
2022-07-30T23:35:10.720Z,66.60
2022-07-30T23:37:48.928Z,68.80
2022-07-30T23:40:18.551Z,69.90
2022-07-30T23:42:47.250Z,69.70
2022-07-30T23:45:14.629Z,75.50
2022-07-30T23:48:00.194Z,78.10
2022-07-30T23:50:31.491Z,82.90
2022-07-30T23:52:58.728Z,76.90
2022-07-30T23:55:27.135Z,76.70
2022-07-30T23:57:54.503Z,84.90
